sensor_id;sensor_type;location;lat;lon;timestamp;pressure;altitude;pressure_sealevel;temperature;humidity
17764;BME280;22245;52.832;13.816;2022-10-13T00:00:48;102109.06;;;5.51;81.08
17764;BME280;22245;52.832;13.816;2022-10-13T00:04:10;102107.34;;;5.50;81.22
17764;BME280;22245;52.832;13.816;2022-10-13T00:07:31;102104.81;;;5.47;81.32
17764;BME280;22245;52.832;13.816;2022-10-13T00:10:52;102104.81;;;5.47;81.29
17764;BME280;22245;52.832;13.816;2022-10-13T00:14:16;102107.59;;;5.44;81.22
17764;BME280;22245;52.832;13.816;2022-10-13T00:17:38;102105.88;;;5.43;81.13
17764;BME280;22245;52.832;13.816;2022-10-13T00:21:06;102110.25;;;5.44;81.17
17764;BME280;22245;52.832;13.816;2022-10-13T00:24:27;102095.31;;;5.43;80.94
17764;BME280;22245;52.832;13.816;2022-10-13T00:27:48;102093.59;;;5.42;80.66
17764;BME280;22245;52.832;13.816;2022-10-13T00:31:17;102092.84;;;5.38;80.85
17764;BME280;22245;52.832;13.816;2022-10-13T00:34:41;102088.56;;;5.35;80.79
17764;BME280;22245;52.832;13.816;2022-10-13T00:38:02;102090.28;;;5.36;80.95
17764;BME280;22245;52.832;13.816;2022-10-13T00:41:24;102092.13;;;5.34;80.56
17764;BME280;22245;52.832;13.816;2022-10-13T00:44:59;102086.16;;;5.29;80.93
17764;BME280;22245;52.832;13.816;2022-10-13T00:48:25;102084.53;;;5.27;81.04
17764;BME280;22245;52.832;13.816;2022-10-13T00:51:49;102090.72;;;5.26;81.17
17764;BME280;22245;52.832;13.816;2022-10-13T00:55:12;102077.56;;;5.24;81.04
17764;BME280;22245;52.832;13.816;2022-10-13T00:58:38;102078.50;;;5.23;81.24
17764;BME280;22245;52.832;13.816;2022-10-13T01:02:01;102083.84;;;5.21;80.94
17764;BME280;22245;52.832;13.816;2022-10-13T01:05:23;102081.25;;;5.20;81.11
17764;BME280;22245;52.832;13.816;2022-10-13T01:08:48;102084.78;;;5.20;81.30
17764;BME280;22245;52.832;13.816;2022-10-13T01:12:20;102082.19;;;5.19;80.79
17764;BME280;22245;52.832;13.816;2022-10-13T01:15:50;102082.25;;;5.17;80.98
17764;BME280;22245;52.832;13.816;2022-10-13T01:19:28;102077.91;;;5.16;80.75
17764;BME280;22245;52.832;13.816;2022-10-13T01:23:10;102086.75;;;5.15;80.50
17764;BME280;22245;52.832;13.816;2022-10-13T01:30:36;102068.56;;;5.07;80.16
17764;BME280;22245;52.832;13.816;2022-10-13T01:34:07;102066.09;;;5.03;80.65
17764;BME280;22245;52.832;13.816;2022-10-13T01:37:33;102064.50;;;4.99;80.62
17764;BME280;22245;52.832;13.816;2022-10-13T01:41:01;102067.22;;;4.97;81.06
17764;BME280;22245;52.832;13.816;2022-10-13T01:44:29;102064.63;;;4.96;81.03
17764;BME280;22245;52.832;13.816;2022-10-13T01:47:52;102060.22;;;4.96;80.99
17764;BME280;22245;52.832;13.816;2022-10-13T01:51:17;102061.19;;;4.93;80.79
17764;BME280;22245;52.832;13.816;2022-10-13T01:54:47;102055.13;;;4.91;80.66
17764;BME280;22245;52.832;13.816;2022-10-13T01:58:09;102056.03;;;4.90;80.96
17764;BME280;22245;52.832;13.816;2022-10-13T02:01:42;102046.59;;;4.85;80.99
17764;BME280;22245;52.832;13.816;2022-10-13T02:05:21;102044.94;;;4.82;80.88
17764;BME280;22245;52.832;13.816;2022-10-13T02:08:52;102051.06;;;4.83;80.85
17764;BME280;22245;52.832;13.816;2022-10-13T02:12:19;102045.06;;;4.79;80.86
17764;BME280;22245;52.832;13.816;2022-10-13T02:15:47;102039.97;;;4.74;80.66
17764;BME280;22245;52.832;13.816;2022-10-13T02:19:13;102032.09;;;4.73;80.33
17764;BME280;22245;52.832;13.816;2022-10-13T02:22:41;102022.56;;;4.69;80.64
17764;BME280;22245;52.832;13.816;2022-10-13T02:26:04;102022.66;;;4.67;80.60
17764;BME280;22245;52.832;13.816;2022-10-13T02:29:25;102018.31;;;4.66;81.12
17764;BME280;22245;52.832;13.816;2022-10-13T02:32:47;102026.22;;;4.66;81.75
17764;BME280;22245;52.832;13.816;2022-10-13T02:36:09;102022.66;;;4.67;81.61
17764;BME280;22245;52.832;13.816;2022-10-13T02:39:33;102023.50;;;4.68;81.22
17764;BME280;22245;52.832;13.816;2022-10-13T02:42:54;102023.56;;;4.66;80.87
17764;BME280;22245;52.832;13.816;2022-10-13T02:46:16;102016.63;;;4.63;81.28
17764;BME280;22245;52.832;13.816;2022-10-13T02:49:38;102014.91;;;4.62;81.41
17764;BME280;22245;52.832;13.816;2022-10-13T02:52:59;102013.28;;;4.60;81.14
17764;BME280;22245;52.832;13.816;2022-10-13T02:56:21;102006.31;;;4.57;81.11
17764;BME280;22245;52.832;13.816;2022-10-13T02:59:43;102003.75;;;4.56;81.47
17764;BME280;22245;52.832;13.816;2022-10-13T03:03:04;101998.47;;;4.56;81.58
17764;BME280;22245;52.832;13.816;2022-10-13T03:06:26;101995.78;;;4.57;81.99
17764;BME280;22245;52.832;13.816;2022-10-13T03:09:47;101993.09;;;4.59;82.00
17764;BME280;22245;52.832;13.816;2022-10-13T03:13:10;101992.97;;;4.62;81.67
17764;BME280;22245;52.832;13.816;2022-10-13T03:16:32;101994.72;;;4.61;81.18
17764;BME280;22245;52.832;13.816;2022-10-13T03:19:54;101989.56;;;4.58;81.09
17764;BME280;22245;52.832;13.816;2022-10-13T03:23:15;101992.34;;;4.55;81.08
17764;BME280;22245;52.832;13.816;2022-10-13T03:26:36;101978.31;;;4.55;81.44
17764;BME280;22245;52.832;13.816;2022-10-13T03:29:59;101969.50;;;4.54;81.78
17764;BME280;22245;52.832;13.816;2022-10-13T03:33:21;101968.59;;;4.55;81.93
17764;BME280;22245;52.832;13.816;2022-10-13T03:36:49;101965.09;;;4.55;81.73
17764;BME280;22245;52.832;13.816;2022-10-13T03:40:11;101972.94;;;4.56;81.77
17764;BME280;22245;52.832;13.816;2022-10-13T03:43:33;101965.91;;;4.57;81.86
17764;BME280;22245;52.832;13.816;2022-10-13T03:46:56;101964.19;;;4.56;81.76
17764;BME280;22245;52.832;13.816;2022-10-13T03:50:17;101963.25;;;4.57;82.02
17764;BME280;22245;52.832;13.816;2022-10-13T03:53:39;101954.34;;;4.59;82.52
17764;BME280;22245;52.832;13.816;2022-10-13T03:57:00;101954.31;;;4.61;82.49
17764;BME280;22245;52.832;13.816;2022-10-13T04:00:21;101948.91;;;4.64;82.87
17764;BME280;22245;52.832;13.816;2022-10-13T04:03:44;101946.13;;;4.67;82.99
17764;BME280;22245;52.832;13.816;2022-10-13T04:07:06;101943.34;;;4.70;83.32
17764;BME280;22245;52.832;13.816;2022-10-13T04:10:27;101945.06;;;4.71;83.29
17764;BME280;22245;52.832;13.816;2022-10-13T04:13:49;101945.81;;;4.75;82.93
17764;BME280;22245;52.832;13.816;2022-10-13T04:17:11;101946.63;;;4.77;82.97
17764;BME280;22245;52.832;13.816;2022-10-13T04:20:37;101948.38;;;4.76;83.08
17764;BME280;22245;52.832;13.816;2022-10-13T04:24:00;101944.78;;;4.79;82.37
17764;BME280;22245;52.832;13.816;2022-10-13T04:27:21;101945.75;;;4.76;81.93
17764;BME280;22245;52.832;13.816;2022-10-13T04:30:42;101934.38;;;4.74;81.90
17764;BME280;22245;52.832;13.816;2022-10-13T04:34:08;101934.38;;;4.74;81.90
17764;BME280;22245;52.832;13.816;2022-10-13T04:37:31;101938.81;;;4.74;82.37
17764;BME280;22245;52.832;13.816;2022-10-13T04:40:53;101942.31;;;4.74;82.33
17764;BME280;22245;52.832;13.816;2022-10-13T04:44:17;101930.97;;;4.72;82.85
17764;BME280;22245;52.832;13.816;2022-10-13T04:47:39;101932.69;;;4.73;83.01
17764;BME280;22245;52.832;13.816;2022-10-13T04:51:02;101932.53;;;4.76;83.41
17764;BME280;22245;52.832;13.816;2022-10-13T04:54:25;101933.22;;;4.82;83.35
17764;BME280;22245;52.832;13.816;2022-10-13T04:57:47;101926.94;;;4.84;83.82
17764;BME280;22245;52.832;13.816;2022-10-13T05:01:12;101928.66;;;4.85;84.21
17764;BME280;22245;52.832;13.816;2022-10-13T05:04:40;101922.19;;;4.92;84.08
17764;BME280;22245;52.832;13.816;2022-10-13T05:08:02;101922.94;;;4.96;83.75
17764;BME280;22245;52.832;13.816;2022-10-13T05:11:25;101911.25;;;5.02;83.77
17764;BME280;22245;52.832;13.816;2022-10-13T05:14:47;101911.09;;;5.05;83.65
17764;BME280;22245;52.832;13.816;2022-10-13T05:18:08;101912.78;;;5.07;83.65
17764;BME280;22245;52.832;13.816;2022-10-13T05:21:30;101914.34;;;5.12;83.53
17764;BME280;22245;52.832;13.816;2022-10-13T05:24:51;101904.56;;;5.14;83.35
17764;BME280;22245;52.832;13.816;2022-10-13T05:28:14;101890.31;;;5.18;83.38
17764;BME280;22245;52.832;13.816;2022-10-13T05:31:36;101890.13;;;5.22;83.33
17764;BME280;22245;52.832;13.816;2022-10-13T05:34:57;101900.47;;;5.27;82.90
17764;BME280;22245;52.832;13.816;2022-10-13T05:38:19;101895.84;;;5.32;82.99
17764;BME280;22245;52.832;13.816;2022-10-13T05:41:45;101896.66;;;5.34;82.90
17764;BME280;22245;52.832;13.816;2022-10-13T05:45:14;101900.72;;;5.42;82.73
17764;BME280;22245;52.832;13.816;2022-10-13T05:48:36;101902.50;;;5.41;83.26
17764;BME280;22245;52.832;13.816;2022-10-13T05:52:00;101882.13;;;5.43;83.12
17764;BME280;22245;52.832;13.816;2022-10-13T05:55:23;101891.59;;;5.49;83.14
17764;BME280;22245;52.832;13.816;2022-10-13T05:58:47;101881.66;;;5.54;82.84
17764;BME280;22245;52.832;13.816;2022-10-13T06:02:13;101880.53;;;5.60;82.96
17764;BME280;22245;52.832;13.816;2022-10-13T06:05:37;101870.66;;;5.63;83.05
17764;BME280;22245;52.832;13.816;2022-10-13T06:09:00;101874.03;;;5.67;83.18
17764;BME280;22245;52.832;13.816;2022-10-13T06:12:22;101877.41;;;5.71;83.25
17764;BME280;22245;52.832;13.816;2022-10-13T06:15:43;101876.31;;;5.75;83.10
17764;BME280;22245;52.832;13.816;2022-10-13T06:19:06;101877.09;;;5.77;83.40
17764;BME280;22245;52.832;13.816;2022-10-13T06:22:28;101879.50;;;5.82;83.53
17764;BME280;22245;52.832;13.816;2022-10-13T06:25:51;101877.50;;;5.87;83.71
17764;BME280;22245;52.832;13.816;2022-10-13T06:29:12;101883.38;;;5.93;83.49
17764;BME280;22245;52.832;13.816;2022-10-13T06:32:34;101882.28;;;5.98;83.55
17764;BME280;22245;52.832;13.816;2022-10-13T06:36:00;101888.38;;;6.00;83.14
17764;BME280;22245;52.832;13.816;2022-10-13T06:39:22;101892.59;;;6.04;83.43
17764;BME280;22245;52.832;13.816;2022-10-13T06:42:48;101890.69;;;6.07;83.69
17764;BME280;22245;52.832;13.816;2022-10-13T06:46:11;101897.47;;;6.13;83.81
17764;BME280;22245;52.832;13.816;2022-10-13T06:49:33;101896.41;;;6.17;83.71
17764;BME280;22245;52.832;13.816;2022-10-13T06:52:56;101895.31;;;6.21;83.99
17764;BME280;22245;52.832;13.816;2022-10-13T06:56:18;101904.66;;;6.29;83.92
17764;BME280;22245;52.832;13.816;2022-10-13T06:59:39;101892.22;;;6.31;83.46
17764;BME280;22245;52.832;13.816;2022-10-13T07:03:00;101901.72;;;6.35;83.48
17764;BME280;22245;52.832;13.816;2022-10-13T07:06:22;101894.56;;;6.37;83.51
17764;BME280;22245;52.832;13.816;2022-10-13T07:09:47;101897.94;;;6.41;84.22
17764;BME280;22245;52.832;13.816;2022-10-13T07:13:09;101892.47;;;6.44;83.65
17764;BME280;22245;52.832;13.816;2022-10-13T07:16:31;101896.78;;;6.46;84.00
17764;BME280;22245;52.832;13.816;2022-10-13T07:19:53;101894.66;;;6.53;83.67
17764;BME280;22245;52.832;13.816;2022-10-13T07:23:17;101891.81;;;6.58;83.52
17764;BME280;22245;52.832;13.816;2022-10-13T07:26:40;101882.00;;;6.60;82.88
17764;BME280;22245;52.832;13.816;2022-10-13T07:30:03;101881.84;;;6.63;82.87
17764;BME280;22245;52.832;13.816;2022-10-13T07:33:24;101870.25;;;6.65;82.88
17764;BME280;22245;52.832;13.816;2022-10-13T07:36:46;101864.03;;;6.66;82.99
17764;BME280;22245;52.832;13.816;2022-10-13T07:40:09;101862.81;;;6.72;83.18
17764;BME280;22245;52.832;13.816;2022-10-13T07:43:33;101859.03;;;6.78;83.09
17764;BME280;22245;52.832;13.816;2022-10-13T07:46:57;101866.59;;;6.86;83.15
17764;BME280;22245;52.832;13.816;2022-10-13T07:50:19;101863.69;;;6.90;83.26
17764;BME280;22245;52.832;13.816;2022-10-13T07:53:41;101858.94;;;6.97;83.16
17764;BME280;22245;52.832;13.816;2022-10-13T07:57:02;101855.94;;;7.03;83.04
17764;BME280;22245;52.832;13.816;2022-10-13T08:00:25;101851.19;;;7.10;83.01
17764;BME280;22245;52.832;13.816;2022-10-13T08:03:47;101852.47;;;7.19;83.06
17764;BME280;22245;52.832;13.816;2022-10-13T08:07:11;101852.94;;;7.27;83.00
17764;BME280;22245;52.832;13.816;2022-10-13T08:10:32;101856.03;;;7.35;82.92
17764;BME280;22245;52.832;13.816;2022-10-13T08:13:54;101852.88;;;7.45;83.39
17764;BME280;22245;52.832;13.816;2022-10-13T08:17:21;101844.59;;;7.51;82.73
17764;BME280;22245;52.832;13.816;2022-10-13T08:20:43;101853.69;;;7.63;83.19
17764;BME280;22245;52.832;13.816;2022-10-13T08:24:08;101846.91;;;7.73;83.23
17764;BME280;22245;52.832;13.816;2022-10-13T08:27:30;101844.53;;;7.85;83.22
17764;BME280;22245;52.832;13.816;2022-10-13T08:31:10;101841.28;;;7.95;83.24
17764;BME280;22245;52.832;13.816;2022-10-13T08:34:34;101845.13;;;8.06;83.16
17764;BME280;22245;52.832;13.816;2022-10-13T08:37:56;101841.16;;;8.13;83.22
17764;BME280;22245;52.832;13.816;2022-10-13T08:41:20;101826.41;;;8.23;83.04
17764;BME280;22245;52.832;13.816;2022-10-13T08:44:48;101824.97;;;8.34;83.17
17764;BME280;22245;52.832;13.816;2022-10-13T08:48:40;101817.97;;;8.47;83.28
17764;BME280;22245;52.832;13.816;2022-10-13T08:52:04;101814.72;;;8.58;83.50
17764;BME280;22245;52.832;13.816;2022-10-13T08:55:29;101808.84;;;8.67;83.42
17764;BME280;22245;52.832;13.816;2022-10-13T08:58:53;101798.72;;;8.74;83.61
17764;BME280;22245;52.832;13.816;2022-10-13T09:02:22;101805.38;;;8.81;83.75
17764;BME280;22245;52.832;13.816;2022-10-13T09:05:52;101798.66;;;8.90;84.11
17764;BME280;22245;52.832;13.816;2022-10-13T09:09:17;101798.91;;;9.00;84.17
17764;BME280;22245;52.832;13.816;2022-10-13T09:12:39;101806.22;;;9.11;84.32
17764;BME280;22245;52.832;13.816;2022-10-13T09:16:00;101800.25;;;9.22;84.16
17764;BME280;22245;52.832;13.816;2022-10-13T09:19:26;101797.75;;;9.33;83.94
17764;BME280;22245;52.832;13.816;2022-10-13T09:23:00;101799.63;;;9.46;83.83
17764;BME280;22245;52.832;13.816;2022-10-13T09:26:24;101797.16;;;9.57;83.56
17764;BME280;22245;52.832;13.816;2022-10-13T09:29:45;101794.75;;;9.67;83.53
17764;BME280;22245;52.832;13.816;2022-10-13T09:33:18;101792.03;;;9.81;83.61
17764;BME280;22245;52.832;13.816;2022-10-13T09:36:54;101789.53;;;9.93;83.28
17764;BME280;22245;52.832;13.816;2022-10-13T09:40:19;101781.72;;;10.04;83.11
17764;BME280;22245;52.832;13.816;2022-10-13T09:43:57;101781.72;;;10.17;83.33
17764;BME280;22245;52.832;13.816;2022-10-13T09:47:20;101784.53;;;10.28;82.52
17764;BME280;22245;52.832;13.816;2022-10-13T09:50:47;101778.41;;;10.41;82.20
17764;BME280;22245;52.832;13.816;2022-10-13T09:54:25;101763.47;;;10.51;82.49
17764;BME280;22245;52.832;13.816;2022-10-13T09:57:48;101772.44;;;10.63;82.43
17764;BME280;22245;52.832;13.816;2022-10-13T10:01:18;101772.66;;;10.73;82.37
17764;BME280;22245;52.832;13.816;2022-10-13T10:04:41;101765.72;;;10.83;81.72
17764;BME280;22245;52.832;13.816;2022-10-13T10:08:10;101763.38;;;10.92;82.55
17764;BME280;22245;52.832;13.816;2022-10-13T10:11:39;101769.56;;;11.05;82.22
17764;BME280;22245;52.832;13.816;2022-10-13T10:15:20;101773.28;;;11.15;82.12
17764;BME280;22245;52.832;13.816;2022-10-13T10:18:47;101784.00;;;11.27;81.58
17764;BME280;22245;52.832;13.816;2022-10-13T10:22:24;101778.00;;;11.36;81.36
17764;BME280;22245;52.832;13.816;2022-10-13T10:25:54;101774.69;;;11.46;80.82
17764;BME280;22245;52.832;13.816;2022-10-13T10:29:25;101775.72;;;11.56;80.83
17764;BME280;22245;52.832;13.816;2022-10-13T10:32:52;101761.69;;;11.65;81.18
17764;BME280;22245;52.832;13.816;2022-10-13T10:36:21;101761.16;;;11.73;80.66
17764;BME280;22245;52.832;13.816;2022-10-13T10:39:47;101760.34;;;11.84;80.46
17764;BME280;22245;52.832;13.816;2022-10-13T10:43:34;101755.28;;;11.92;80.06
17764;BME280;22245;52.832;13.816;2022-10-13T10:47:05;101750.97;;;12.02;79.77
17764;BME280;22245;52.832;13.816;2022-10-13T10:50:28;101746.66;;;12.13;80.03
17764;BME280;22245;52.832;13.816;2022-10-13T10:54:02;101737.94;;;12.22;79.70
17764;BME280;22245;52.832;13.816;2022-10-13T10:57:28;101723.00;;;12.31;79.65
17764;BME280;22245;52.832;13.816;2022-10-13T11:01:04;101722.09;;;12.43;79.27
17764;BME280;22245;52.832;13.816;2022-10-13T11:04:40;101713.97;;;12.56;79.03
17764;BME280;22245;52.832;13.816;2022-10-13T11:08:03;101712.25;;;12.67;79.24
17764;BME280;22245;52.832;13.816;2022-10-13T11:11:34;101705.94;;;12.79;78.92
17764;BME280;22245;52.832;13.816;2022-10-13T11:15:08;101703.28;;;12.91;78.31
17764;BME280;22245;52.832;13.816;2022-10-13T11:18:56;101696.94;;;13.03;78.08
17764;BME280;22245;52.832;13.816;2022-10-13T11:22:22;101697.06;;;13.13;77.71
17764;BME280;22245;52.832;13.816;2022-10-13T11:25:45;101688.38;;;13.21;77.98
17764;BME280;22245;52.832;13.816;2022-10-13T11:29:17;101685.69;;;13.32;77.78
17764;BME280;22245;52.832;13.816;2022-10-13T11:32:45;101682.16;;;13.43;76.69
17764;BME280;22245;52.832;13.816;2022-10-13T11:36:46;101666.66;;;13.58;76.68
17764;BME280;22245;52.832;13.816;2022-10-13T11:40:27;101662.81;;;13.72;75.70
17764;BME280;22245;52.832;13.816;2022-10-13T11:43:55;101672.63;;;13.83;75.71
17764;BME280;22245;52.832;13.816;2022-10-13T11:47:50;101658.59;;;13.91;75.17
17764;BME280;22245;52.832;13.816;2022-10-13T11:51:29;101663.88;;;14.02;74.34
17764;BME280;22245;52.832;13.816;2022-10-13T11:54:54;101664.94;;;14.11;74.66
17764;BME280;22245;52.832;13.816;2022-10-13T11:58:23;101673.75;;;14.23;73.87
17764;BME280;22245;52.832;13.816;2022-10-13T12:01:45;101672.78;;;14.33;73.40
17764;BME280;22245;52.832;13.816;2022-10-13T12:05:19;101673.97;;;14.41;72.20
17764;BME280;22245;52.832;13.816;2022-10-13T12:08:45;101664.53;;;14.46;72.63
17764;BME280;22245;52.832;13.816;2022-10-13T12:12:13;101664.59;;;14.56;72.08
17764;BME280;22245;52.832;13.816;2022-10-13T12:15:37;101652.06;;;14.67;73.28
17764;BME280;22245;52.832;13.816;2022-10-13T12:19:08;101649.34;;;14.78;72.65
17764;BME280;22245;52.832;13.816;2022-10-13T12:22:33;101650.03;;;14.90;71.32
17764;BME280;22245;52.832;13.816;2022-10-13T12:25:59;101652.06;;;14.98;70.82
17764;BME280;22245;52.832;13.816;2022-10-13T12:29:24;101637.53;;;15.00;70.60
17764;BME280;22245;52.832;13.816;2022-10-13T12:32:48;101641.34;;;15.08;70.44
17764;BME280;22245;52.832;13.816;2022-10-13T12:36:12;101632.03;;;15.12;69.70
17764;BME280;22245;52.832;13.816;2022-10-13T12:39:35;101639.38;;;15.19;70.44
17764;BME280;22245;52.832;13.816;2022-10-13T12:42:57;101635.16;;;15.27;70.00
17764;BME280;22245;52.832;13.816;2022-10-13T12:46:34;101637.28;;;15.33;69.78
17764;BME280;22245;52.832;13.816;2022-10-13T12:50:20;101636.88;;;15.38;69.72
17764;BME280;22245;52.832;13.816;2022-10-13T12:53:42;101640.78;;;15.43;69.82
17764;BME280;22245;52.832;13.816;2022-10-13T12:57:27;101639.13;;;15.52;69.48
17764;BME280;22245;52.832;13.816;2022-10-13T13:00:57;101642.38;;;15.56;69.53
17764;BME280;22245;52.832;13.816;2022-10-13T13:04:30;101644.06;;;15.57;68.54
17764;BME280;22245;52.832;13.816;2022-10-13T13:07:52;101644.63;;;15.60;68.13
17764;BME280;22245;52.832;13.816;2022-10-13T13:11:21;101644.63;;;15.60;67.90
17764;BME280;22245;52.832;13.816;2022-10-13T13:14:47;101637.97;;;15.65;68.09
17764;BME280;22245;52.832;13.816;2022-10-13T13:18:31;101650.97;;;15.69;67.95
17764;BME280;22245;52.832;13.816;2022-10-13T13:21:55;101641.94;;;15.70;67.98
17764;BME280;22245;52.832;13.816;2022-10-13T13:25:17;101648.56;;;15.66;67.67
17764;BME280;22245;52.832;13.816;2022-10-13T13:28:42;101638.81;;;15.65;67.78
17764;BME280;22245;52.832;13.816;2022-10-13T13:32:08;101650.13;;;15.69;67.58
17764;BME280;22245;52.832;13.816;2022-10-13T13:35:31;101641.50;;;15.65;68.09
17764;BME280;22245;52.832;13.816;2022-10-13T13:38:54;101646.19;;;15.63;67.58
17764;BME280;22245;52.832;13.816;2022-10-13T13:42:15;101648.00;;;15.62;67.99
17764;BME280;22245;52.832;13.816;2022-10-13T13:45:40;101639.94;;;15.62;68.78
17764;BME280;22245;52.832;13.816;2022-10-13T13:49:03;101648.16;;;15.61;68.82
17764;BME280;22245;52.832;13.816;2022-10-13T13:52:25;101637.41;;;15.61;68.70
17764;BME280;22245;52.832;13.816;2022-10-13T13:55:46;101646.31;;;15.61;69.05
17764;BME280;22245;52.832;13.816;2022-10-13T13:59:10;101646.19;;;15.63;68.92
17764;BME280;22245;52.832;13.816;2022-10-13T14:02:32;101640.94;;;15.61;69.46
17764;BME280;22245;52.832;13.816;2022-10-13T14:05:55;101647.16;;;15.62;70.43
17764;BME280;22245;52.832;13.816;2022-10-13T14:09:18;101639.13;;;15.62;69.84
17764;BME280;22245;52.832;13.816;2022-10-13T14:12:40;101625.53;;;15.63;69.88
17764;BME280;22245;52.832;13.816;2022-10-13T14:16:03;101615.66;;;15.64;69.60
17764;BME280;22245;52.832;13.816;2022-10-13T14:19:25;101594.88;;;15.66;69.35
17764;BME280;22245;52.832;13.816;2022-10-13T14:22:47;101587.53;;;15.68;68.47
17764;BME280;22245;52.832;13.816;2022-10-13T14:26:09;101582.00;;;15.70;68.43
17764;BME280;22245;52.832;13.816;2022-10-13T14:29:31;101583.69;;;15.71;68.61
17764;BME280;22245;52.832;13.816;2022-10-13T14:32:52;101586.38;;;15.71;69.61
17764;BME280;22245;52.832;13.816;2022-10-13T14:36:15;101582.84;;;15.70;69.44
17764;BME280;22245;52.832;13.816;2022-10-13T14:39:38;101591.91;;;15.69;70.07
17764;BME280;22245;52.832;13.816;2022-10-13T14:42:59;101600.25;;;15.66;71.07
17764;BME280;22245;52.832;13.816;2022-10-13T14:46:21;101593.31;;;15.63;71.40
17764;BME280;22245;52.832;13.816;2022-10-13T14:49:43;101589.09;;;15.61;71.55
17764;BME280;22245;52.832;13.816;2022-10-13T14:53:05;101588.38;;;15.59;72.72
17764;BME280;22245;52.832;13.816;2022-10-13T14:56:30;101580.63;;;15.56;73.00
17764;BME280;22245;52.832;13.816;2022-10-13T14:59:51;101582.59;;;15.54;72.83
17764;BME280;22245;52.832;13.816;2022-10-13T15:03:20;101580.03;;;15.52;73.88
17764;BME280;22245;52.832;13.816;2022-10-13T15:06:42;101575.78;;;15.49;73.65
17764;BME280;22245;52.832;13.816;2022-10-13T15:10:05;101569.72;;;15.47;74.32
17764;BME280;22245;52.832;13.816;2022-10-13T15:13:29;101582.59;;;15.44;74.60
17764;BME280;22245;52.832;13.816;2022-10-13T15:16:50;101572.69;;;15.44;74.82
17764;BME280;22245;52.832;13.816;2022-10-13T15:20:12;101572.69;;;15.44;74.57
17764;BME280;22245;52.832;13.816;2022-10-13T15:23:33;101574.69;;;15.42;75.19
17764;BME280;22245;52.832;13.816;2022-10-13T15:26:54;101580.50;;;15.38;75.53
17764;BME280;22245;52.832;13.816;2022-10-13T15:30:22;101575.53;;;15.33;75.97
17764;BME280;22245;52.832;13.816;2022-10-13T15:33:45;101572.44;;;15.28;75.85
17764;BME280;22245;52.832;13.816;2022-10-13T15:37:07;101574.72;;;15.23;75.55
17764;BME280;22245;52.832;13.816;2022-10-13T15:40:28;101577.81;;;15.18;75.74
17764;BME280;22245;52.832;13.816;2022-10-13T15:43:52;101576.50;;;15.12;76.33
17764;BME280;22245;52.832;13.816;2022-10-13T15:47:15;101579.06;;;15.04;76.91
17764;BME280;22245;52.832;13.816;2022-10-13T15:50:38;101565.50;;;14.96;76.98
17764;BME280;22245;52.832;13.816;2022-10-13T15:54:00;101568.88;;;14.88;77.17
17764;BME280;22245;52.832;13.816;2022-10-13T15:57:22;101573.25;;;14.79;77.31
17764;BME280;22245;52.832;13.816;2022-10-13T16:00:43;101575.03;;;14.69;77.42
17764;BME280;22245;52.832;13.816;2022-10-13T16:04:06;101567.09;;;14.57;78.02
17764;BME280;22245;52.832;13.816;2022-10-13T16:07:28;101575.00;;;14.49;77.82
17764;BME280;22245;52.832;13.816;2022-10-13T16:10:49;101577.03;;;14.36;77.85
17764;BME280;22245;52.832;13.816;2022-10-13T16:14:10;101578.13;;;14.23;78.62
17764;BME280;22245;52.832;13.816;2022-10-13T16:17:32;101579.34;;;14.09;79.06
17764;BME280;22245;52.832;13.816;2022-10-13T16:20:55;101579.53;;;13.96;79.09
17764;BME280;22245;52.832;13.816;2022-10-13T16:24:17;101583.88;;;13.87;78.99
17764;BME280;22245;52.832;13.816;2022-10-13T16:27:39;101589.44;;;13.74;79.55
17764;BME280;22245;52.832;13.816;2022-10-13T16:31:03;101583.41;;;13.61;79.77
17764;BME280;22245;52.832;13.816;2022-10-13T16:34:29;101579.72;;;13.52;79.79
17764;BME280;22245;52.832;13.816;2022-10-13T16:37:52;101583.25;;;13.41;80.61
17764;BME280;22245;52.832;13.816;2022-10-13T16:41:15;101586.81;;;13.30;80.36
17764;BME280;22245;52.832;13.816;2022-10-13T16:44:37;101577.72;;;13.22;80.48
17764;BME280;22245;52.832;13.816;2022-10-13T16:47:59;101577.66;;;13.12;80.53
17764;BME280;22245;52.832;13.816;2022-10-13T16:51:22;101582.06;;;13.01;81.13
17764;BME280;22245;52.832;13.816;2022-10-13T16:54:46;101578.34;;;12.93;81.44
17764;BME280;22245;52.832;13.816;2022-10-13T16:58:08;101570.06;;;12.84;81.30
17764;BME280;22245;52.832;13.816;2022-10-13T17:01:30;101580.56;;;12.76;81.77
17764;BME280;22245;52.832;13.816;2022-10-13T17:04:53;101576.69;;;12.69;81.92
17764;BME280;22245;52.832;13.816;2022-10-13T17:08:14;101578.03;;;12.63;82.75
17764;BME280;22245;52.832;13.816;2022-10-13T17:11:37;101574.16;;;12.56;82.97
17764;BME280;22245;52.832;13.816;2022-10-13T17:14:59;101563.25;;;12.48;82.99
17764;BME280;22245;52.832;13.816;2022-10-13T17:18:20;101560.09;;;12.42;83.21
17764;BME280;22245;52.832;13.816;2022-10-13T17:21:42;101572.09;;;12.37;82.92
17764;BME280;22245;52.832;13.816;2022-10-13T17:25:05;101564.47;;;12.32;82.91
17764;BME280;22245;52.832;13.816;2022-10-13T17:28:29;101556.94;;;12.26;83.68
17764;BME280;22245;52.832;13.816;2022-10-13T17:31:52;101566.06;;;12.23;84.11
17764;BME280;22245;52.832;13.816;2022-10-13T17:35:14;101569.22;;;12.17;83.65
17764;BME280;22245;52.832;13.816;2022-10-13T17:38:37;101570.44;;;12.13;84.21
17764;BME280;22245;52.832;13.816;2022-10-13T17:41:58;101570.88;;;12.07;84.36
17764;BME280;22245;52.832;13.816;2022-10-13T17:45:21;101563.25;;;12.02;84.12
17764;BME280;22245;52.832;13.816;2022-10-13T17:48:44;101567.94;;;11.98;83.75